Time;durP1;ratioP1;P1;durP2;ratioP2;P2;SDS_P1;SDS_P2;PMS_P1;PMS_P2;Temp;Humidity;BMP_temperature;BMP_pressure;BME280_temperature;BME280_humidity;BME280_pressure;Samples;Min_cycle;Max_cycle;Signal;HPM_P1;HPM_P2
2023/07/19 00:00:35;;;;;;;;;;;16.50;99.90;;;;;;5014794;28;20009;-94
2023/07/19 00:03:01;;;;;;;;;;;16.30;99.90;;;;;;5010386;28;19925;-95
2023/07/19 00:05:27;;;;;;;;;;;16.50;99.90;;;;;;5019624;28;19956;-95
2023/07/19 00:07:54;;;;;;;;;;;16.40;99.90;;;;;;5021335;28;19916;-94
2023/07/19 00:10:19;;;;;;;;;;;16.40;99.90;;;;;;5018130;28;19921;-95
2023/07/19 00:12:47;;;;;;;;;;;16.40;99.90;;;;;;5020604;28;19925;-94
2023/07/19 00:15:12;;;;;;;;;;;15.80;99.90;;;;;;5018199;28;19921;-94
2023/07/19 00:17:44;;;;;;;;;;;16.20;99.90;;;;;;5033740;28;19940;-95
2023/07/19 00:20:10;;;;;;;;;;;16.20;99.90;;;;;;5014646;28;19925;-94
2023/07/19 00:22:36;;;;;;;;;;;16.10;99.90;;;;;;5039201;28;19928;-94
2023/07/19 00:25:02;;;;;;;;;;;16.10;99.90;;;;;;5018767;28;19921;-94
2023/07/19 00:27:27;;;;;;;;;;;16.10;99.90;;;;;;5021126;28;20008;-95
2023/07/19 00:29:53;;;;;;;;;;;16.10;99.90;;;;;;5017926;28;19952;-94
2023/07/19 00:32:19;;;;;;;;;;;16.00;99.90;;;;;;5010002;28;19925;-95
2023/07/19 00:34:47;;;;;;;;;;;16.10;99.90;;;;;;5010989;28;19984;-95
2023/07/19 00:37:13;;;;;;;;;;;16.00;99.90;;;;;;5021331;28;19929;-95
2023/07/19 00:39:39;;;;;;;;;;;16.00;99.90;;;;;;5019465;28;19928;-95
2023/07/19 00:42:05;;;;;;;;;;;16.10;99.90;;;;;;5019405;28;19929;-95
2023/07/19 00:44:31;;;;;;;;;;;16.00;99.90;;;;;;5021174;28;19956;-94
2023/07/19 00:47:02;;;;;;;;;;;15.90;99.90;;;;;;4992630;28;19936;-95
2023/07/19 00:49:29;;;;;;;;;;;15.90;99.90;;;;;;5016543;28;19928;-96
2023/07/19 00:51:56;;;;;;;;;;;15.50;99.90;;;;;;5016200;28;19948;-96
2023/07/19 00:54:22;;;;;;;;;;;15.60;99.90;;;;;;5017529;28;19925;-94
2023/07/19 00:56:48;;;;;;;;;;;15.50;99.90;;;;;;5001499;28;19956;-94
2023/07/19 00:59:14;;;;;;;;;;;15.50;99.90;;;;;;5001697;28;19929;-93
2023/07/19 01:01:46;;;;;;;;;;;15.90;99.90;;;;;;5004112;28;19925;-94
2023/07/19 01:04:20;;;;;;;;;;;15.40;99.90;;;;;;5017606;28;19925;-95
2023/07/19 01:06:46;;;;;;;;;;;15.40;99.90;;;;;;4998376;28;19940;-96
2023/07/19 01:09:18;;;;;;;;;;;15.50;99.90;;;;;;4985263;28;19948;-94
2023/07/19 01:11:45;;;;;;;;;;;15.50;99.90;;;;;;5014550;28;19925;-94
2023/07/19 01:14:12;;;;;;;;;;;15.50;99.90;;;;;;4999732;28;19933;-95
2023/07/19 01:16:38;;;;;;;;;;;15.10;99.90;;;;;;4998634;28;19925;-94
2023/07/19 01:19:04;;;;;;;;;;;15.40;99.90;;;;;;4997660;28;20431;-95
2023/07/19 01:21:32;;;;;;;;;;;15.40;99.90;;;;;;5012849;28;19952;-96
2023/07/19 01:23:58;;;;;;;;;;;15.40;99.90;;;;;;5001252;28;19935;-95
2023/07/19 01:26:24;;;;;;;;;;;15.40;99.90;;;;;;5015925;28;19925;-95
2023/07/19 01:28:50;;;;;;;;;;;15.30;99.90;;;;;;5018825;28;19936;-96
2023/07/19 01:31:16;;;;;;;;;;;15.30;99.90;;;;;;5013918;28;19957;-94
2023/07/19 01:33:42;;;;;;;;;;;15.40;99.90;;;;;;5029126;28;19988;-94
2023/07/19 01:36:08;;;;;;;;;;;15.40;99.90;;;;;;5012921;28;19960;-95
2023/07/19 01:38:37;;;;;;;;;;;15.40;99.90;;;;;;5013431;28;19925;-94
2023/07/19 01:41:03;;;;;;;;;;;15.40;99.90;;;;;;5008691;28;20023;-96
2023/07/19 01:43:29;;;;;;;;;;;15.40;99.90;;;;;;5013139;28;19940;-95
2023/07/19 01:45:55;;;;;;;;;;;15.50;99.90;;;;;;5013101;28;19932;-94
2023/07/19 01:48:21;;;;;;;;;;;15.30;99.90;;;;;;4998399;28;19925;-94
2023/07/19 01:50:47;;;;;;;;;;;15.50;99.90;;;;;;5015511;28;19933;-96
2023/07/19 01:53:13;;;;;;;;;;;15.50;99.90;;;;;;5014987;28;19952;-95
2023/07/19 01:55:39;;;;;;;;;;;15.40;99.90;;;;;;5014450;28;20004;-95
2023/07/19 01:58:05;;;;;;;;;;;15.60;99.90;;;;;;5013158;28;19940;-95
2023/07/19 02:00:31;;;;;;;;;;;15.60;99.90;;;;;;5014156;28;19929;-96
2023/07/19 02:02:57;;;;;;;;;;;15.60;99.90;;;;;;5013813;28;19936;-94
2023/07/19 02:05:23;;;;;;;;;;;15.60;99.90;;;;;;5012764;28;19948;-95
2023/07/19 02:07:49;;;;;;;;;;;15.60;99.90;;;;;;5012632;28;20314;-96
2023/07/19 02:10:15;;;;;;;;;;;15.60;99.90;;;;;;5013032;28;19925;-96
2023/07/19 02:12:42;;;;;;;;;;;15.60;99.90;;;;;;5027869;28;19925;-94
2023/07/19 02:15:08;;;;;;;;;;;15.00;99.90;;;;;;5015014;28;19925;-95
2023/07/19 02:17:34;;;;;;;;;;;15.60;99.90;;;;;;5014829;28;19982;-95
2023/07/19 02:20:00;;;;;;;;;;;15.60;99.90;;;;;;5014319;28;19988;-96
2023/07/19 02:22:26;;;;;;;;;;;15.50;99.90;;;;;;5014202;28;19988;-95
2023/07/19 02:24:52;;;;;;;;;;;15.60;99.90;;;;;;5013601;28;19932;-94
2023/07/19 02:27:18;;;;;;;;;;;15.50;99.90;;;;;;5024993;28;19960;-95
2023/07/19 02:29:44;;;;;;;;;;;15.50;99.90;;;;;;5013566;28;19925;-95
2023/07/19 02:32:11;;;;;;;;;;;15.50;99.90;;;;;;5012202;28;19929;-93
2023/07/19 02:34:37;;;;;;;;;;;15.50;99.90;;;;;;5022808;28;19985;-95
2023/07/19 02:37:06;;;;;;;;;;;15.50;99.90;;;;;;5013367;28;19929;-94
2023/07/19 02:39:32;;;;;;;;;;;15.50;99.90;;;;;;5013068;28;19932;-94
2023/07/19 02:41:58;;;;;;;;;;;15.50;99.90;;;;;;4998696;28;20023;-95
2023/07/19 02:44:24;;;;;;;;;;;15.40;99.90;;;;;;5015274;28;19925;-94
2023/07/19 02:46:49;;;;;;;;;;;15.50;99.90;;;;;;5012800;28;20305;-95
2023/07/19 02:49:15;;;;;;;;;;;15.30;99.90;;;;;;5003816;28;20308;-94
2023/07/19 02:51:41;;;;;;;;;;;15.40;99.90;;;;;;5023567;28;19928;-95
2023/07/19 02:54:07;;;;;;;;;;;15.30;99.90;;;;;;5041760;28;19929;-96
2023/07/19 02:56:34;;;;;;;;;;;15.30;99.90;;;;;;5024338;28;19944;-94
2023/07/19 02:59:00;;;;;;;;;;;15.20;99.90;;;;;;5041386;28;19956;-94
2023/07/19 03:01:26;;;;;;;;;;;15.30;99.90;;;;;;5012269;28;20008;-94
2023/07/19 03:03:52;;;;;;;;;;;15.20;99.90;;;;;;5020555;28;19921;-95
2023/07/19 03:06:17;;;;;;;;;;;15.20;99.90;;;;;;5031180;28;19991;-95
2023/07/19 03:08:49;;;;;;;;;;;15.20;99.90;;;;;;5026373;28;19917;-95
2023/07/19 03:11:15;;;;;;;;;;;15.20;99.90;;;;;;5021081;28;19921;-95
2023/07/19 03:13:50;;;;;;;;;;;15.20;99.90;;;;;;5030362;28;19956;-94
2023/07/19 03:16:16;;;;;;;;;;;15.00;99.90;;;;;;5013566;28;20455;-95
2023/07/19 03:18:42;;;;;;;;;;;15.20;99.90;;;;;;5015535;28;19929;-95
2023/07/19 03:21:08;;;;;;;;;;;15.20;99.90;;;;;;5015976;28;20553;-95
2023/07/19 03:23:34;;;;;;;;;;;15.20;99.90;;;;;;5017809;28;19925;-95
2023/07/19 03:26:00;;;;;;;;;;;15.30;99.90;;;;;;5019227;28;19925;-95
2023/07/19 03:28:28;;;;;;;;;;;15.30;99.90;;;;;;5050803;28;20008;-93
2023/07/19 03:30:54;;;;;;;;;;;15.30;99.90;;;;;;5018321;28;19925;-95
2023/07/19 03:33:21;;;;;;;;;;;15.30;99.90;;;;;;5018668;28;19925;-94
2023/07/19 03:35:53;;;;;;;;;;;15.30;99.90;;;;;;5024167;28;19932;-96
2023/07/19 03:38:19;;;;;;;;;;;15.30;99.90;;;;;;5022306;28;19936;-94
2023/07/19 03:40:45;;;;;;;;;;;15.30;99.90;;;;;;5013277;28;19961;-95
2023/07/19 03:43:11;;;;;;;;;;;15.30;99.90;;;;;;4997082;28;19936;-95
2023/07/19 03:45:37;;;;;;;;;;;15.30;99.90;;;;;;5021928;28;19968;-95
2023/07/19 03:48:03;;;;;;;;;;;15.30;99.90;;;;;;5031582;28;19964;-96
2023/07/19 03:50:28;;;;;;;;;;;15.30;99.90;;;;;;4989443;28;19972;-94
2023/07/19 03:52:54;;;;;;;;;;;15.30;99.90;;;;;;5015412;28;19929;-95
2023/07/19 03:55:20;;;;;;;;;;;15.60;99.90;;;;;;4996779;28;19951;-94
2023/07/19 03:57:47;;;;;;;;;;;15.00;99.90;;;;;;4999592;28;20001;-96
2023/07/19 04:00:13;;;;;;;;;;;15.20;99.90;;;;;;5013209;28;19931;-95
2023/07/19 04:02:39;;;;;;;;;;;15.20;99.90;;;;;;5016634;28;19957;-94
2023/07/19 04:05:05;;;;;;;;;;;15.20;99.90;;;;;;5013542;28;19925;-94
2023/07/19 04:07:31;;;;;;;;;;;15.20;99.90;;;;;;5016951;28;20445;-95
2023/07/19 04:09:57;;;;;;;;;;;15.10;99.90;;;;;;5017592;28;19940;-95
2023/07/19 04:12:22;;;;;;;;;;;15.10;99.90;;;;;;5020044;28;19956;-95
2023/07/19 04:14:50;;;;;;;;;;;14.60;99.90;;;;;;5019086;28;19925;-95
2023/07/19 04:17:16;;;;;;;;;;;15.10;99.90;;;;;;5012659;28;20337;-95
2023/07/19 04:19:41;;;;;;;;;;;14.80;99.90;;;;;;5014601;28;20370;-96
2023/07/19 04:22:07;;;;;;;;;;;15.00;99.90;;;;;;5011462;28;19933;-95
2023/07/19 04:24:33;;;;;;;;;;;15.20;99.90;;;;;;4999629;28;19922;-95
2023/07/19 04:26:59;;;;;;;;;;;15.10;99.90;;;;;;5014770;28;20497;-94
2023/07/19 04:29:25;;;;;;;;;;;15.70;99.90;;;;;;5031669;28;20382;-95
2023/07/19 04:31:50;;;;;;;;;;;15.30;99.90;;;;;;5004663;28;19925;-94
2023/07/19 04:34:16;;;;;;;;;;;15.30;99.90;;;;;;5008590;28;19929;-95
2023/07/19 04:36:48;;;;;;;;;;;15.30;99.90;;;;;;5012952;28;19932;-94
2023/07/19 04:39:14;;;;;;;;;;;15.30;99.90;;;;;;5012738;28;20409;-95
2023/07/19 04:41:45;;;;;;;;;;;15.30;99.90;;;;;;4996955;28;19918;-95
2023/07/19 04:44:11;;;;;;;;;;;15.30;99.90;;;;;;5013039;28;19925;-95
2023/07/19 04:46:37;;;;;;;;;;;15.40;99.90;;;;;;5002396;28;19948;-94
2023/07/19 04:49:06;;;;;;;;;;;15.40;99.90;;;;;;5015457;28;19929;-94
2023/07/19 04:51:31;;;;;;;;;;;15.40;99.90;;;;;;5020252;28;19925;-95
2023/07/19 04:53:58;;;;;;;;;;;15.40;99.90;;;;;;5008873;28;19909;-95
2023/07/19 04:56:24;;;;;;;;;;;15.40;99.90;;;;;;5001645;28;19929;-95
2023/07/19 04:58:50;;;;;;;;;;;15.40;99.90;;;;;;4976703;28;19933;-95
2023/07/19 05:01:16;;;;;;;;;;;15.40;99.90;;;;;;5010134;28;19929;-95
2023/07/19 05:03:42;;;;;;;;;;;15.40;99.90;;;;;;4992061;28;20467;-94
2023/07/19 05:06:07;;;;;;;;;;;15.50;99.90;;;;;;5002050;28;19968;-94
2023/07/19 05:08:33;;;;;;;;;;;15.20;99.90;;;;;;4976158;28;19926;-94
2023/07/19 05:10:59;;;;;;;;;;;15.50;99.90;;;;;;4992202;28;19975;-96
2023/07/19 05:13:25;;;;;;;;;;;15.60;99.90;;;;;;4988011;28;19964;-95
2023/07/19 05:15:50;;;;;;;;;;;15.50;99.90;;;;;;4991792;28;19933;-95
2023/07/19 05:18:16;;;;;;;;;;;15.60;99.90;;;;;;4993399;28;19929;-94
2023/07/19 05:20:42;;;;;;;;;;;15.60;99.90;;;;;;5008613;28;19948;-94
2023/07/19 05:23:07;;;;;;;;;;;15.70;99.90;;;;;;4974239;28;19981;-93
2023/07/19 05:25:33;;;;;;;;;;;16.00;99.90;;;;;;4977397;28;19933;-95
2023/07/19 05:27:59;;;;;;;;;;;15.60;99.90;;;;;;4988067;28;19925;-95
2023/07/19 05:30:25;;;;;;;;;;;15.70;99.90;;;;;;4992863;28;20365;-95
2023/07/19 05:32:51;;;;;;;;;;;15.70;99.90;;;;;;4994521;28;19925;-95
2023/07/19 05:35:16;;;;;;;;;;;15.70;99.90;;;;;;4993002;28;19930;-94
2023/07/19 05:37:42;;;;;;;;;;;15.70;99.90;;;;;;4995852;28;19925;-94
2023/07/19 05:40:10;;;;;;;;;;;15.60;99.90;;;;;;4992321;28;19929;-95
2023/07/19 05:42:36;;;;;;;;;;;15.50;99.90;;;;;;4992797;28;19930;-95
2023/07/19 05:45:03;;;;;;;;;;;15.80;99.90;;;;;;4995891;28;20039;-95
2023/07/19 05:47:29;;;;;;;;;;;15.70;99.90;;;;;;4998346;28;19932;-94
2023/07/19 05:49:55;;;;;;;;;;;15.70;99.90;;;;;;5001763;28;19968;-94
2023/07/19 05:52:20;;;;;;;;;;;15.80;99.90;;;;;;4974020;28;19972;-95
2023/07/19 05:54:46;;;;;;;;;;;15.80;99.90;;;;;;4991540;28;19992;-93
2023/07/19 05:57:12;;;;;;;;;;;15.80;99.90;;;;;;5000827;28;19925;-94
2023/07/19 05:59:38;;;;;;;;;;;15.90;99.90;;;;;;4992661;28;20400;-95
2023/07/19 06:02:05;;;;;;;;;;;15.90;99.90;;;;;;5015539;28;19971;-95
2023/07/19 06:04:31;;;;;;;;;;;15.90;99.90;;;;;;5017897;28;19961;-95
2023/07/19 06:06:58;;;;;;;;;;;15.90;99.90;;;;;;5022298;28;19928;-94
2023/07/19 06:09:24;;;;;;;;;;;15.80;99.90;;;;;;5018928;28;19925;-94
2023/07/19 06:11:50;;;;;;;;;;;15.90;99.90;;;;;;5018955;28;19929;-94
2023/07/19 06:14:15;;;;;;;;;;;15.90;99.90;;;;;;5014881;28;19925;-94
2023/07/19 06:16:41;;;;;;;;;;;15.90;99.90;;;;;;5011624;28;19972;-93
2023/07/19 06:19:09;;;;;;;;;;;15.90;99.90;;;;;;5009867;28;19933;-95
2023/07/19 06:21:35;;;;;;;;;;;15.70;99.90;;;;;;5013099;28;19980;-96
2023/07/19 06:24:01;;;;;;;;;;;16.00;99.90;;;;;;4997759;28;19925;-95
2023/07/19 06:26:26;;;;;;;;;;;16.00;99.90;;;;;;5012477;28;20510;-95
2023/07/19 06:28:53;;;;;;;;;;;16.00;99.90;;;;;;4989668;28;19925;-96
2023/07/19 06:31:19;;;;;;;;;;;16.10;99.90;;;;;;5012357;28;19925;-95
2023/07/19 06:33:44;;;;;;;;;;;16.10;99.90;;;;;;5012764;28;19971;-94
2023/07/19 06:36:10;;;;;;;;;;;16.10;99.90;;;;;;4989947;28;19933;-93
2023/07/19 06:38:42;;;;;;;;;;;16.20;99.90;;;;;;5007831;28;19925;-96
2023/07/19 06:41:10;;;;;;;;;;;16.20;99.90;;;;;;5014989;28;20246;-94
2023/07/19 06:43:41;;;;;;;;;;;16.20;99.90;;;;;;4999877;28;19925;-95
2023/07/19 06:46:15;;;;;;;;;;;16.30;99.90;;;;;;5001992;28;19926;-96
2023/07/19 06:48:43;;;;;;;;;;;16.40;99.90;;;;;;5015119;28;19948;-94
2023/07/19 06:51:08;;;;;;;;;;;16.40;99.90;;;;;;5000188;28;19936;-95
2023/07/19 06:53:34;;;;;;;;;;;16.50;99.90;;;;;;4998686;28;19925;-94
2023/07/19 06:56:03;;;;;;;;;;;16.50;99.90;;;;;;4999177;28;20047;-94
2023/07/19 06:58:28;;;;;;;;;;;16.40;99.90;;;;;;4981954;28;19931;-95
2023/07/19 07:01:00;;;;;;;;;;;16.60;99.90;;;;;;4985342;28;19926;-95
2023/07/19 07:03:26;;;;;;;;;;;16.60;99.90;;;;;;5002142;28;19925;-93
2023/07/19 07:05:52;;;;;;;;;;;16.70;99.90;;;;;;4999377;28;19925;-95
2023/07/19 07:08:17;;;;;;;;;;;16.70;99.90;;;;;;4979286;28;19968;-95
2023/07/19 07:10:43;;;;;;;;;;;16.40;99.90;;;;;;4991646;28;19925;-94
2023/07/19 07:13:09;;;;;;;;;;;16.90;99.90;;;;;;4975282;28;19926;-95
2023/07/19 07:15:35;;;;;;;;;;;17.00;99.90;;;;;;5009749;28;19926;-93
2023/07/19 07:18:03;;;;;;;;;;;17.00;99.90;;;;;;4980526;28;20009;-94
2023/07/19 07:20:28;;;;;;;;;;;17.10;99.90;;;;;;4980122;28;19969;-93
2023/07/19 07:22:55;;;;;;;;;;;17.20;99.90;;;;;;5013144;28;19958;-94
2023/07/19 07:25:29;;;;;;;;;;;17.20;99.90;;;;;;4971488;28;19976;-94
2023/07/19 07:27:55;;;;;;;;;;;17.30;99.90;;;;;;4964109;28;19941;-93
2023/07/19 07:30:21;;;;;;;;;;;17.40;99.90;;;;;;4992280;28;19936;-94
2023/07/19 07:32:49;;;;;;;;;;;17.50;99.90;;;;;;4989370;28;20356;-93
2023/07/19 07:35:16;;;;;;;;;;;17.60;99.90;;;;;;4991941;28;20015;-94
2023/07/19 07:37:42;;;;;;;;;;;17.70;99.90;;;;;;4996323;28;19939;-95
2023/07/19 07:40:08;;;;;;;;;;;17.80;99.90;;;;;;5008854;28;19925;-95
2023/07/19 07:42:34;;;;;;;;;;;17.90;99.90;;;;;;4992100;28;19941;-94
2023/07/19 07:45:00;;;;;;;;;;;17.90;99.90;;;;;;4989550;28;19925;-94
2023/07/19 07:47:29;;;;;;;;;;;17.90;99.90;;;;;;4995027;28;19932;-94
2023/07/19 07:49:56;;;;;;;;;;;18.00;99.90;;;;;;4999724;28;19925;-95
2023/07/19 07:52:21;;;;;;;;;;;18.10;99.90;;;;;;4994020;28;19926;-95
2023/07/19 07:54:48;;;;;;;;;;;17.80;99.90;;;;;;4980094;28;19926;-93
2023/07/19 07:57:15;;;;;;;;;;;18.10;99.90;;;;;;4993768;28;19941;-95
2023/07/19 07:59:41;;;;;;;;;;;18.10;99.90;;;;;;4995026;28;19930;-93
2023/07/19 08:02:07;;;;;;;;;;;18.10;99.90;;;;;;4981834;28;19930;-94
2023/07/19 08:04:34;;;;;;;;;;;18.20;99.90;;;;;;4975262;28;20016;-96
2023/07/19 08:07:03;;;;;;;;;;;18.20;99.90;;;;;;4991258;28;19926;-93
2023/07/19 08:09:28;;;;;;;;;;;18.30;99.90;;;;;;4991342;28;20278;-93
2023/07/19 08:11:57;;;;;;;;;;;18.40;99.90;;;;;;4983371;28;19925;-96
2023/07/19 08:14:23;;;;;;;;;;;18.50;99.90;;;;;;4990414;28;20000;-93
2023/07/19 08:17:01;;;;;;;;;;;18.60;99.90;;;;;;4988645;28;19932;-95
2023/07/19 08:19:26;;;;;;;;;;;18.70;99.90;;;;;;4986925;28;19992;-95
2023/07/19 08:21:52;;;;;;;;;;;18.70;99.90;;;;;;4988423;28;19941;-94
2023/07/19 08:24:19;;;;;;;;;;;18.60;99.90;;;;;;5012842;28;19981;-94
2023/07/19 08:27:06;;;;;;;;;;;18.50;99.90;;;;;;4985580;28;19925;-95
2023/07/19 08:29:39;;;;;;;;;;;18.60;99.90;;;;;;4996572;28;19929;-94
2023/07/19 08:32:05;;;;;;;;;;;18.70;99.90;;;;;;4985461;28;20021;-95
2023/07/19 08:34:33;;;;;;;;;;;18.70;99.90;;;;;;5002295;28;19932;-94
2023/07/19 08:37:00;;;;;;;;;;;18.70;99.90;;;;;;4985838;28;19936;-93
2023/07/19 08:39:47;;;;;;;;;;;18.60;99.90;;;;;;4998596;28;19948;-94
2023/07/19 08:42:21;;;;;;;;;;;18.70;99.90;;;;;;5010248;28;19925;-95
2023/07/19 08:44:48;;;;;;;;;;;18.70;99.90;;;;;;4998872;23;19929;-89
2023/07/19 08:47:16;;;;;;;;;;;18.60;99.90;;;;;;5023130;28;20028;-87
2023/07/19 08:49:42;;;;;;;;;;;18.80;99.90;;;;;;5015149;28;19929;-90
2023/07/19 08:52:08;;;;;;;;;;;19.00;99.90;;;;;;4996728;28;19929;-89
2023/07/19 08:54:34;;;;;;;;;;;19.20;99.90;;;;;;4996516;28;19929;-91
2023/07/19 08:56:59;;;;;;;;;;;19.30;99.90;;;;;;4998515;28;20008;-89
2023/07/19 08:59:28;;;;;;;;;;;19.30;99.90;;;;;;5001313;28;19950;-93
2023/07/19 09:01:53;;;;;;;;;;;19.30;99.90;;;;;;5020523;28;20004;-93
2023/07/19 09:04:21;;;;;;;;;;;19.30;99.90;;;;;;5019856;28;19998;-94
2023/07/19 09:06:48;;;;;;;;;;;19.20;99.90;;;;;;5015192;28;19925;-91
2023/07/19 09:09:14;;;;;;;;;;;19.30;99.90;;;;;;5007125;28;19926;-93
2023/07/19 09:11:48;;;;;;;;;;;19.50;99.90;;;;;;5006083;28;19925;-92
2023/07/19 09:14:14;;;;;;;;;;;19.60;99.90;;;;;;5025170;28;19925;-89
2023/07/19 09:16:40;;;;;;;;;;;19.70;99.90;;;;;;5013767;28;19932;-92
2023/07/19 09:19:16;;;;;;;;;;;19.90;99.90;;;;;;5022649;28;19932;-91
2023/07/19 09:21:56;;;;;;;;;;;;;;;;;;;;;
2023/07/19 09:24:30;;;;;;;;;;;20.30;99.90;;;;;;4997803;28;19929;-90
2023/07/19 09:26:56;;;;;;;;;;;20.30;99.90;;;;;;5015798;28;20012;-92
2023/07/19 09:29:29;;;;;;;;;;;20.30;99.90;;;;;;5013168;28;19925;-90
2023/07/19 09:32:02;;;;;;;;;;;20.40;99.90;;;;;;5036319;28;19925;-93
2023/07/19 09:34:45;;;;;;;;;;;20.40;99.90;;;;;;5014765;28;19932;-89
2023/07/19 09:37:13;;;;;;;;;;;20.40;99.90;;;;;;5004761;28;20296;-90
2023/07/19 09:39:40;;;;;;;;;;;20.20;99.90;;;;;;5014840;28;20452;-91
2023/07/19 09:42:08;;;;;;;;;;;20.40;99.90;;;;;;5011721;28;19925;-89
2023/07/19 09:44:36;;;;;;;;;;;20.30;99.90;;;;;;5013759;28;20393;-90
2023/07/19 09:47:08;;;;;;;;;;;20.50;99.90;;;;;;4994408;28;19997;-92
2023/07/19 09:49:37;;;;;;;;;;;20.60;99.90;;;;;;5008302;28;19936;-90
2023/07/19 09:52:12;;;;;;;;;;;20.60;99.90;;;;;;5004869;28;19929;-89
2023/07/19 09:54:51;;;;;;;;;;;20.50;99.90;;;;;;4995227;28;20392;-92
2023/07/19 09:57:17;;;;;;;;;;;20.50;99.90;;;;;;4996664;28;19925;-90
2023/07/19 09:59:48;;;;;;;;;;;20.40;99.90;;;;;;4997956;28;19929;-92
2023/07/19 10:02:21;;;;;;;;;;;20.40;99.90;;;;;;5014551;28;19933;-92
2023/07/19 10:04:47;;;;;;;;;;;20.00;99.90;;;;;;4995442;28;20417;-93
2023/07/19 10:07:18;;;;;;;;;;;20.20;99.90;;;;;;4996464;28;20063;-91
2023/07/19 10:09:48;;;;;;;;;;;20.00;99.90;;;;;;4997135;28;19933;-89
2023/07/19 10:12:16;;;;;;;;;;;19.80;99.90;;;;;;5012904;28;19929;-89
2023/07/19 10:15:05;;;;;;;;;;;19.80;99.90;;;;;;5007204;28;19933;-91
2023/07/19 10:17:53;;;;;;;;;;;19.70;99.90;;;;;;4986581;28;19925;-89
2023/07/19 10:20:25;;;;;;;;;;;20.20;99.90;;;;;;4996142;28;19972;-91
2023/07/19 10:23:06;;;;;;;;;;;20.10;99.90;;;;;;5028971;28;19960;-88
2023/07/19 10:25:36;;;;;;;;;;;20.10;99.90;;;;;;5015354;28;19936;-91
2023/07/19 10:28:09;;;;;;;;;;;19.90;99.90;;;;;;4993066;28;19965;-91
2023/07/19 10:30:44;;;;;;;;;;;19.80;99.90;;;;;;4997549;28;20391;-88
2023/07/19 10:33:30;;;;;;;;;;;19.80;99.90;;;;;;5017294;28;19948;-87
2023/07/19 10:35:57;;;;;;;;;;;19.80;99.90;;;;;;4999318;28;19929;-89
2023/07/19 10:38:24;;;;;;;;;;;19.80;99.90;;;;;;4998963;28;20024;-89
2023/07/19 10:40:56;;;;;;;;;;;20.00;99.90;;;;;;5011354;28;20031;-91
2023/07/19 10:43:22;;;;;;;;;;;20.10;99.90;;;;;;5014177;28;19925;-88
2023/07/19 10:45:50;;;;;;;;;;;20.30;99.90;;;;;;4995295;28;19944;-89
2023/07/19 10:48:16;;;;;;;;;;;20.30;99.90;;;;;;5008628;28;19933;-90
2023/07/19 10:50:43;;;;;;;;;;;20.10;99.90;;;;;;5014897;28;20369;-91
2023/07/19 10:53:16;;;;;;;;;;;19.80;99.90;;;;;;5012670;28;19932;-88
2023/07/19 10:55:44;;;;;;;;;;;19.60;99.90;;;;;;5016636;28;20178;-88
2023/07/19 10:58:19;;;;;;;;;;;19.40;99.90;;;;;;5001725;28;20285;-90
2023/07/19 11:00:45;;;;;;;;;;;19.20;99.90;;;;;;4991447;28;19932;-89
2023/07/19 11:03:15;;;;;;;;;;;19.10;99.90;;;;;;4998368;28;19926;-90
2023/07/19 11:05:47;;;;;;;;;;;19.10;99.90;;;;;;5011839;28;19929;-90
2023/07/19 11:08:23;;;;;;;;;;;18.90;99.90;;;;;;5027377;28;20293;-89
2023/07/19 11:10:49;;;;;;;;;;;19.40;99.90;;;;;;4995054;28;20282;-89
2023/07/19 11:13:16;;;;;;;;;;;19.80;99.90;;;;;;5033621;28;19928;-88
2023/07/19 11:15:59;;;;;;;;;;;20.30;99.90;;;;;;5053351;28;19984;-91
2023/07/19 11:18:43;;;;;;;;;;;20.50;99.90;;;;;;5033676;28;19980;-91
2023/07/19 11:21:11;;;;;;;;;;;20.70;99.90;;;;;;5039246;28;19940;-91
2023/07/19 11:23:41;;;;;;;;;;;21.10;99.90;;;;;;5034598;28;19913;-89
2023/07/19 11:26:07;;;;;;;;;;;21.30;99.90;;;;;;5049289;28;19996;-90
2023/07/19 11:29:02;;;;;;;;;;;21.30;99.90;;;;;;5040981;28;19968;-89
2023/07/19 11:31:35;;;;;;;;;;;21.80;99.90;;;;;;4998890;28;20063;-88
2023/07/19 11:34:06;;;;;;;;;;;22.00;99.90;;;;;;5002330;28;19929;-89
2023/07/19 11:36:31;;;;;;;;;;;21.90;99.90;;;;;;4995537;28;19929;-90
2023/07/19 11:39:00;;;;;;;;;;;21.60;99.90;;;;;;5018171;28;20289;-89
2023/07/19 11:41:25;;;;;;;;;;;21.40;99.90;;;;;;5003415;28;19925;-88
2023/07/19 11:43:54;;;;;;;;;;;21.50;99.90;;;;;;5008383;28;19925;-89
2023/07/19 11:46:24;;;;;;;;;;;21.70;99.90;;;;;;4990649;28;19998;-88
2023/07/19 11:48:51;;;;;;;;;;;21.70;99.90;;;;;;5017597;28;19932;-88
2023/07/19 11:51:26;;;;;;;;;;;21.60;99.90;;;;;;5016755;28;19929;-91
2023/07/19 11:53:54;;;;;;;;;;;21.60;99.90;;;;;;5016823;28;20016;-88
2023/07/19 11:56:22;;;;;;;;;;;21.40;99.90;;;;;;4998479;28;20013;-91
2023/07/19 11:58:53;;;;;;;;;;;21.30;99.90;;;;;;5022182;28;19932;-89
2023/07/19 12:01:21;;;;;;;;;;;21.20;99.90;;;;;;5002119;28;19925;-88
2023/07/19 12:03:50;;;;;;;;;;;21.30;99.90;;;;;;5012748;28;20385;-91
2023/07/19 12:06:15;;;;;;;;;;;21.20;99.90;;;;;;5012603;28;19972;-90
2023/07/19 12:08:51;;;;;;;;;;;21.20;99.90;;;;;;5009142;28;19937;-90
2023/07/19 12:11:20;;;;;;;;;;;21.10;99.90;;;;;;5000631;28;19932;-87
2023/07/19 12:13:48;;;;;;;;;;;21.10;99.90;;;;;;5016160;28;19925;-90
2023/07/19 12:16:21;;;;;;;;;;;21.10;99.90;;;;;;4997884;28;20383;-88
2023/07/19 12:19:00;;;;;;;;;;;;;;;;;;;;;
2023/07/19 12:21:26;;;;;;;;;;;21.60;99.90;;;;;;5018681;28;19932;-88
2023/07/19 12:23:51;;;;;;;;;;;21.70;99.90;;;;;;5015282;28;19925;-89
2023/07/19 12:26:19;;;;;;;;;;;21.70;99.90;;;;;;5006279;28;20525;-88
2023/07/19 12:28:45;;;;;;;;;;;21.50;99.90;;;;;;5001642;28;19975;-88
2023/07/19 12:31:11;;;;;;;;;;;21.30;99.90;;;;;;5019522;28;19976;-88
2023/07/19 12:33:40;;;;;;;;;;;21.20;99.90;;;;;;5018515;28;19989;-87
2023/07/19 12:36:13;;;;;;;;;;;21.30;99.90;;;;;;5013110;28;19925;-86
2023/07/19 12:38:42;;;;;;;;;;;21.40;99.90;;;;;;5004000;28;20004;-88
2023/07/19 12:41:07;;;;;;;;;;;21.50;99.90;;;;;;4993859;28;20475;-87
2023/07/19 12:43:36;;;;;;;;;;;21.60;99.90;;;;;;4996699;28;19937;-86
2023/07/19 12:46:04;;;;;;;;;;;21.50;99.90;;;;;;5021676;28;19944;-85
2023/07/19 12:48:30;;;;;;;;;;;21.50;99.90;;;;;;5001471;28;19929;-86
2023/07/19 12:50:55;;;;;;;;;;;21.40;99.90;;;;;;5019376;28;19925;-88
2023/07/19 12:53:22;;;;;;;;;;;21.30;99.90;;;;;;5006487;28;19932;-86
2023/07/19 12:55:48;;;;;;;;;;;21.30;99.90;;;;;;5006919;28;19925;-89
2023/07/19 12:58:14;;;;;;;;;;;21.20;99.90;;;;;;5013982;28;19936;-85
2023/07/19 13:00:47;;;;;;;;;;;21.10;99.90;;;;;;5000711;28;20027;-87
2023/07/19 13:03:15;;;;;;;;;;;21.10;99.90;;;;;;4982253;28;19995;-89
2023/07/19 13:05:41;;;;;;;;;;;21.20;99.90;;;;;;5013515;28;19961;-86
2023/07/19 13:08:09;;;;;;;;;;;21.40;99.90;;;;;;5005767;28;19999;-87
2023/07/19 13:10:40;;;;;;;;;;;21.60;99.90;;;;;;5028959;28;19929;-87
2023/07/19 13:13:08;;;;;;;;;;;21.60;99.90;;;;;;5015214;28;19986;-89
2023/07/19 13:15:35;;;;;;;;;;;21.60;99.90;;;;;;5010800;28;19983;-91
2023/07/19 13:18:01;;;;;;;;;;;21.80;99.90;;;;;;5016830;28;19929;-89
2023/07/19 13:20:31;;;;;;;;;;;21.70;99.90;;;;;;4996222;28;20059;-87
2023/07/19 13:22:59;;;;;;;;;;;21.90;99.90;;;;;;5018227;28;20442;-91
2023/07/19 13:25:33;;;;;;;;;;;22.10;99.90;;;;;;4985194;28;20319;-90
2023/07/19 13:27:58;;;;;;;;;;;22.30;99.90;;;;;;4982574;28;19925;-91
2023/07/19 13:30:24;;;;;;;;;;;22.30;99.90;;;;;;5006345;28;20001;-90
2023/07/19 13:32:52;;;;;;;;;;;22.50;99.90;;;;;;4991827;28;19925;-88
2023/07/19 13:35:21;;;;;;;;;;;22.50;99.90;;;;;;5007343;28;19968;-87
2023/07/19 13:37:49;;;;;;;;;;;22.50;99.90;;;;;;5000480;28;20392;-88
2023/07/19 13:40:18;;;;;;;;;;;22.50;99.90;;;;;;5024505;28;19925;-88
2023/07/19 13:42:43;;;;;;;;;;;22.40;99.90;;;;;;5006625;28;19929;-88
2023/07/19 13:45:12;;;;;;;;;;;22.30;99.90;;;;;;5014854;28;20095;-88
2023/07/19 13:47:38;;;;;;;;;;;22.30;99.90;;;;;;4999797;28;19972;-88
2023/07/19 13:50:08;;;;;;;;;;;22.20;99.90;;;;;;5025538;28;19932;-87
2023/07/19 13:52:39;;;;;;;;;;;22.20;99.90;;;;;;5017755;28;19964;-87
2023/07/19 13:55:08;;;;;;;;;;;22.20;99.90;;;;;;5013696;28;19932;-88
2023/07/19 13:57:34;;;;;;;;;;;22.10;99.90;;;;;;5014875;28;19925;-88
2023/07/19 14:00:02;;;;;;;;;;;22.10;99.90;;;;;;4982254;28;19925;-88
2023/07/19 14:02:38;;;;;;;;;;;22.20;99.90;;;;;;4993512;28;19975;-89
2023/07/19 14:05:07;;;;;;;;;;;22.30;99.90;;;;;;4999128;28;20291;-88
2023/07/19 14:07:33;;;;;;;;;;;22.30;99.90;;;;;;5014834;28;19944;-88
2023/07/19 14:10:03;;;;;;;;;;;22.20;99.90;;;;;;5001532;28;19925;-88
2023/07/19 14:12:34;;;;;;;;;;;21.80;99.70;;;;;;5010469;28;20005;-89
2023/07/19 14:15:05;;;;;;;;;;;21.80;99.90;;;;;;4998581;28;20067;-88
2023/07/19 14:17:42;;;;;;;;;;;21.70;99.90;;;;;;5024505;28;20026;-91
2023/07/19 14:20:08;;;;;;;;;;;21.80;99.90;;;;;;4996701;28;19929;-87
2023/07/19 14:22:36;;;;;;;;;;;22.00;99.90;;;;;;4997397;28;20308;-89
2023/07/19 14:25:23;;;;;;;;;;;;;;;;;;;;;